Francistown, Botswana

1:10 PM CAT on January 26, 2015 (GMT +0200)
Selebi-Phikwe | Change Station
CLOSE
Current Station
Airport
Location: Selibe-Phikwe,
Elevation: 2927 ft
Nearby Weather Stations

Elev 2927 ft 22.06 °S, 27.83 °E | Updated 10 minutes ago

Partly Cloudy
Partly Cloudy
95 °F
Feels Like 95 °F
N
7
Wind Variable Wind from ESE

Today
High -- | Low -- °F
--% Chance of Precip.
Yesterday
High -- | Low -- °F
Precip. -- in
5:48 AM 6:56 PM
Waxing Crescent, 42% visible
Pressure 30.01 in
Visibility 6.2 miles
Clouds Few 3000 ft
Heat Index 95 °F
Dew Point 61 °F
Humidity 32%
Rainfall 0.00 in
Snow Depth Not available.
UV 14 out of 12
Pollen Not available.
Air Quality Not available.
Flu Activity Not available.
METAR FBSP 261100Z 11006KT 9999 FEW030 35/16 Q1016

More Conditions Fewer Conditions

Pressure 30.01 in
Visibility 6.2 miles
Clouds Few 3000 ft
Heat Index 95 °F
Dew Point 61 °F
Humidity 32%
Rainfall 0.00 in
Snow Depth Not available.
UV 14 out of 12
Pollen Not available.
Air Quality Not available.
Flu Activity Not available.
METAR FBSP 261100Z 11006KT 9999 FEW030 35/16 Q1016

More Conditions Fewer Conditions

10-Day Weather Forecast

Almanac

Astronomy

Jan. 26, 2015 Rise Set
Actual Time
Civil Twilight
Nautical Twilight
Astronomical Twilight
Moon
Length of Visible Light
Length of Day
Tomorrow will be .
, % of the Moon is Illuminated

Today's Extremes

Country Highs Country Lows

Community

WunderPhotos

Upload Photos

1,790,172 photos uploaded!

WunderBlogs® & News

Nearby

Air Quality

  Air Quality AQ Index Pollutant
Not available.

Snow Depth

Station Depth Elevation

Earthquake Activity

City Distance Mag. Time & Date
Minimum magnitude displayed is 2.5.

Coastal Water Temperatures

Place Temperature

Nearby Weather Stations